• Join FlightAware (Why Join?)
  • Login
  • US Flag 
02:19PM EDT


 

Airport Tracker/Info


-or-


 

Live Flight TrackerFlight Track Log ✈ JBU300 ✈ 13-Apr-2013 ✈ KLGB - KIAD

Flight Track Log - Related Links

Times and Time Zones

All times are in EDT time to prevent confusion due to time zone crossing. See the JBU300 flight status page for this flight to view local times or setup timezone preferences in your user account.

Time Position Orientation Groundspeed Altitude Reporting Facility
EDT Latitude Longitude Course Direction KTS MPH feet Rate Location/Type
12:31AM 33.8150 -118.1480 140° Southeast 140 161 100  Level FlightAware
12:31AM 33.8310 -118.1680 314° West 181 208 1,000 1,920 Climbing FlightAware
12:32AM 33.8480 -118.1910 312° West 204 235 1,900 1,440 Climbing FlightAware
12:32AM 33.8510 -118.2060 284° West 219 252 2,100 1,620 Climbing FlightAware
12:33AM 33.8380 -118.2360 242° Southwest 240 276 3,000 2,400 Climbing FlightAware
12:33AM 33.8220 -118.2440 203° Southwest 244 281 3,700 3,060 Climbing FlightAware
12:33AM 33.7900 -118.2520 192° South 241 277 5,300 2,700 Climbing FlightAware
12:34AM 33.7600 -118.2580 189° South 259 298 6,200 2,460 Climbing FlightAware
12:34AM 33.7240 -118.2640 188° South 264 304 7,600 2,520 Climbing FlightAware
12:35AM 33.7010 -118.2680 188° South 275 316 8,300 1,920 Climbing FlightAware
12:35AM 33.6590 -118.2450 155° Southeast 310 357 9,400 1,920 Climbing FlightAware
12:35AM 33.6480 -118.2200 118° Southeast 317 365 9,900 1,500 Climbing FlightAware
12:36AM 33.6430 -118.1470 95° East 347 399 10,800 1,260 Climbing FlightAware
12:37AM 33.6390 -118.0560 93° East 385 443 11,700 1,500 Climbing FlightAware
12:38AM 33.6390 -117.9660 90° East 392 451 13,200 1,920 Climbing FlightAware
12:38AM 33.6390 -117.8730 90° East 395 455 14,800 1,980 Climbing FlightAware
12:39AM 33.6390 -117.7720 90° East 403 464 16,200 1,920 Climbing FlightAware
12:40AM 33.6390 -117.6910 90° East 406 467 17,400 1,800 Climbing FlightAware
12:40AM 33.6390 -117.5960 90° East 412 474 18,600 1,500 Climbing FlightAware
12:41AM 33.6390 -117.4920 90° East 424 488 19,700 1,680 Climbing FlightAware
12:42AM 33.6380 -117.3680 91° East 430 495 21,000 1,680 Climbing FlightAware
12:43AM 33.6380 -117.2630 90° East 436 502 22,100 1,320 Climbing FlightAware
12:43AM 33.6380 -117.1630 90° East 444 511 22,900 1,080 Climbing FlightAware
12:44AM 33.6370 -117.0530 91° East 455 524 23,700 1,020 Climbing FlightAware
12:45AM 33.6360 -116.9510 91° East 463 533 24,400 1,080 Climbing FlightAware
12:45AM 33.6350 -116.8450 91° East 470 541 25,200 1,020 Climbing FlightAware
12:46AM 33.6350 -116.7280 90° East 477 549 25,900 1,020 Climbing FlightAware
12:47AM 33.6350 -116.6340 90° East 478 550 26,600 1,080 Climbing FlightAware
12:48AM 33.6340 -116.5020 90° East 487 560 27,500 900 Climbing FlightAware
12:48AM 33.6340 -116.3940 90° East 492 566 28,000 600 Climbing FlightAware
12:49AM 33.6330 -116.3010 91° East 498 573 28,300 780 Climbing FlightAware
12:49AM 33.6330 -116.1890 90° East 500 575 29,000 1,080 Climbing FlightAware
12:50AM 33.6320 -116.0540 90° East 499 574 29,900 1,020 Climbing FlightAware
12:51AM 33.6320 -115.9320 90° East 497 572 30,700 960 Climbing FlightAware
12:52AM 33.6310 -115.8150 91° East 499 574 31,300 780 Climbing FlightAware
12:52AM 33.6300 -115.7230 91° East 499 574 31,700 1,200 Climbing FlightAware
12:53AM 33.6270 -115.5850 91° East 486 559 33,000 1,020 Climbing FlightAware
12:54AM 33.6260 -115.4840 91° East 483 556 33,300 180 Climbing FlightAware
12:54AM 33.6260 -115.3920 90° East 483 556 33,300  Level FlightAware
12:55AM 33.6260 -115.3010 90° East 483 556 33,300  Level FlightAware
12:56AM 33.6260 -115.1870 90° East 483 556 33,300  Level FlightAware
12:57AM 33.6260 -115.0960 90° East 483 556 33,300  Level FlightAware
12:57AM 33.6260 -115.0050 90° East 483 556 33,300  Level FlightAware
12:58AM 33.6260 -114.9130 90° East 483 556 33,300  Level FlightAware
12:59AM 33.6260 -114.8220 90° East 483 556 33,300  Level FlightAware
12:59AM 33.6260 -114.7310 90° East 483 556 33,300  Level FlightAware
01:00AM 33.6260 -114.6170 90° East 483 556 33,300  Level FlightAware
01:01AM 33.6260 -114.5260 90° East 483 556 33,300  Level FlightAware
01:01AM 33.6260 -114.4340 90° East 483 556 33,300  Level FlightAware
01:02AM 33.6260 -114.3430 90° East 483 556 33,300 1,320 Level FlightAware
01:03AM 34.0280 -114.1350 23° Northeast 478 550 35,000 1,320 Climbing FlightAware
01:03AM 34.0570 -114.0350 71° East 480 552 35,000  Level FlightAware
01:04AM 34.0900 -113.9160 71° East 482 555 35,000  Level FlightAware
01:05AM 34.1210 -113.8080 71° East 482 555 35,000  Level FlightAware
01:06AM 34.1460 -113.7210 71° East 482 555 35,000  Level FlightAware
01:06AM 34.1860 -113.5760 72° East 483 556 35,000  Level FlightAware
01:07AM 34.2160 -113.4670 72° East 483 556 35,000  Level FlightAware
01:08AM 34.2450 -113.3610 72° East 484 557 35,000  Level FlightAware
01:09AM 34.2770 -113.2440 72° East 485 558 35,000  Level FlightAware
01:09AM 34.3060 -113.1380 72° East 485 558 35,000  Level FlightAware
01:10AM 34.3340 -113.0380 71° East 486 559 35,000  Level FlightAware
01:11AM 34.3670 -112.9180 72° East 486 559 35,000  Level FlightAware
01:11AM 34.3940 -112.8170 72° East 485 558 35,000  Level FlightAware
01:12AM 34.4250 -112.7030 72° East 485 558 35,000  Level FlightAware
01:13AM 34.4530 -112.5990 72° East 487 560 35,000  Level FlightAware
01:13AM 34.4790 -112.5000 72° East 488 562 35,000  Level FlightAware
01:14AM 34.5110 -112.3810 72° East 488 562 35,000  Level FlightAware
01:15AM 34.5390 -112.2770 72° East 490 564 35,000  Level FlightAware
01:16AM 34.5710 -112.1570 72° East 494 568 35,000  Level FlightAware
01:16AM 34.5970 -112.0580 72° East 494 568 35,000  Level FlightAware
01:17AM 34.6360 -111.9090 72° East 495 570 35,000  Level FlightAware
01:18AM 34.6680 -111.7870 72° East 494 568 35,000  Level FlightAware
01:19AM 34.6950 -111.6820 73° East 493 567 35,000  Level FlightAware
01:19AM 34.7250 -111.5670 72° East 492 566 35,000  Level FlightAware
01:20AM 34.7480 -111.4780 73° East 491 565 35,000  Level FlightAware
01:21AM 34.7810 -111.3500 73° East 487 560 35,000 -120 Level FlightAware
01:21AM 34.8110 -111.2340 72° East 490 564 34,900 -120 Descending FlightAware
01:22AM 34.8360 -111.1380 72° East 489 563 34,900 60 Level FlightAware
01:23AM 34.8670 -111.0100 74° East 492 566 35,000 60 Climbing FlightAware
01:23AM 34.8940 -110.9060 72° East 501 577 35,000  Level FlightAware
01:24AM 34.9280 -110.7680 73° East 502 578 35,000  Level FlightAware
01:25AM 34.9510 -110.6760 73° East 502 578 35,000  Level FlightAware
01:26AM 34.9740 -110.5840 73° East 502 578 35,000  Level FlightAware
01:26AM 34.9970 -110.4920 73° East 502 578 35,000  Level FlightAware
01:27AM 35.0260 -110.3770 73° East 502 578 35,000  Level FlightAware
01:28AM 35.0490 -110.2840 73° East 502 578 35,000  Level FlightAware
01:29AM 35.0720 -110.1920 73° East 502 578 35,000  Level FlightAware
01:29AM 35.0950 -110.1000 73° East 502 578 35,000  Level FlightAware
01:30AM 35.1190 -110.0080 72° East 502 578 35,000  Level FlightAware
01:31AM 35.1470 -109.8920 74° East 502 578 35,000  Level FlightAware
01:31AM 35.1700 -109.8000 73° East 502 578 35,000  Level FlightAware
01:32AM 35.1940 -109.7070 72° East 502 578 35,000  Level FlightAware
01:33AM 35.2170 -109.6150 73° East 502 578 35,000  Level FlightAware
01:33AM 35.2400 -109.5220 73° East 502 578 35,000  Level FlightAware
01:38AM 35.4720 -108.5000 74° East 502 578 35,000  Level FlightAware
01:39AM 35.4930 -108.4050 75° East 494 568 35,000  Level FlightAware
01:39AM 35.5190 -108.2970 73° East 494 568 35,000 -120 Level FlightAware
01:40AM 35.5490 -108.1630 75° East 483 556 34,900  Descending FlightAware
01:41AM 35.5760 -108.0410 75° East 495 570 35,000 60 Climbing FlightAware
01:42AM 35.6000 -107.9320 75° East 505 581 35,000  Level FlightAware
01:42AM 35.6240 -107.8260 74° East 514 592 35,000  Level FlightAware
01:43AM 35.6520 -107.7010 75° East 504 580 35,000  Level FlightAware
01:44AM 35.6750 -107.5960 75° East 508 585 35,000  Level FlightAware
01:44AM 35.7050 -107.4590 75° East 508 585 35,000  Level FlightAware
01:45AM 35.7290 -107.3500 75° East 505 581 35,000  Level FlightAware
01:46AM 35.7530 -107.2360 75° East 505 581 35,000  Level FlightAware
01:47AM 35.7790 -107.1160 75° East 505 581 35,000  Level FlightAware
01:47AM 35.8030 -107.0060 75° East 501 577 35,000  Level FlightAware
01:48AM 35.8300 -106.8810 75° East 500 575 35,000 60 Level FlightAware
01:49AM 35.8520 -106.7750 76° East 487 560 35,100  Climbing FlightAware
01:49AM 35.8790 -106.6500 75° East 494 568 35,000 -120 Descending FlightAware
01:50AM 35.9000 -106.5500 75° East 492 566 35,000  Level FlightAware
01:51AM 35.9230 -106.4380 76° East 488 562 35,000  Level FlightAware
01:51AM 35.9470 -106.3300 75° East 488 562 35,000  Level FlightAware
01:52AM 35.9670 -106.2380 75° East 488 562 35,000  Level FlightAware
01:53AM 35.9860 -106.1470 76° East 488 562 35,000  Level FlightAware
01:53AM 36.0060 -106.0550 75° East 488 562 35,000  Level FlightAware
01:54AM 36.0490 -105.8340 76° East 496 571 35,000  Level FlightAware
01:55AM 36.0690 -105.7410 75° East 496 571 35,000  Level FlightAware
01:56AM 36.0950 -105.6030 77° East 493 567 35,000  Level FlightAware
01:57AM 36.1130 -105.5100 77° East 493 567 35,000  Level FlightAware
01:57AM 36.1320 -105.4170 76° East 493 567 35,000  Level FlightAware
01:58AM 36.1510 -105.3230 76° East 493 567 35,000  Level FlightAware
01:59AM 36.1740 -105.2070 76° East 493 567 35,000  Level FlightAware
01:59AM 36.1930 -105.1140 76° East 493 567 35,000  Level FlightAware
02:00AM 36.2120 -105.0200 76° East 493 567 35,000  Level FlightAware
02:01AM 36.2310 -104.9270 76° East 493 567 35,000  Level FlightAware
02:01AM 36.2490 -104.8340 76° East 493 567 35,000  Level FlightAware
02:02AM 36.2680 -104.7400 76° East 493 567 35,000  Level FlightAware
02:03AM 36.2910 -104.6240 76° East 493 567 35,000  Level FlightAware
02:04AM 36.3100 -104.5300 76° East 493 567 35,000  Level FlightAware
02:04AM 36.3290 -104.4370 76° East 493 567 35,000  Level FlightAware
02:05AM 36.3480 -104.3440 76° East 493 567 35,000 60 Level FlightAware
02:05AM 36.3853 -104.1061 76° East 480 552 35,100  Climbing Albuquerque Center
02:06AM 36.4158 -103.9428 77° East 479 551 35,000 -60 Descending Albuquerque Center
02:07AM 36.4461 -103.7792 77° East 485 558 35,000  Level Albuquerque Center
02:08AM 36.4767 -103.6125 77° East 497 572 35,000  Level Albuquerque Center
02:09AM 36.5078 -103.4400 77° East 507 583 35,000  Level Albuquerque Center
02:10AM 36.5386 -103.2700 77° East 495 570 35,000  Level Albuquerque Center
02:11AM 36.5686 -103.1036 77° East 488 562 35,000  Level Albuquerque Center
02:12AM 36.5981 -102.9356 78° East 495 570 35,000  Level Albuquerque Center
02:13AM 36.6267 -102.7731 78° East 497 572 35,000  Level Albuquerque Center
02:14AM 36.6575 -102.5975 78° East 502 578 35,000  Level Albuquerque Center
02:15AM 36.6819 -102.4550 78° East 494 568 35,000  Level Albuquerque Center
02:16AM 36.7108 -102.2867 78° East 499 574 35,000  Level Albuquerque Center
02:17AM 36.7442 -102.0903 78° East 499 574 35,100  Climbing Albuquerque Center
02:18AM 36.7714 -101.9286 78° East 498 573 35,000 -60 Descending Albuquerque Center
02:19AM 36.7981 -101.7683 78° East 494 568 35,000  Level Albuquerque Center
02:20AM 36.8242 -101.6092 78° East 491 565 35,000  Level Albuquerque Center
02:21AM 36.8542 -101.4253 78° East 483 556 35,100  Climbing Albuquerque Center
02:23AM 36.8872 -101.2172 79° East 485 558 35,000 -60 Descending Kansas City Center
02:24AM 36.9128 -101.0572 79° East 489 563 35,000  Level Kansas City Center
02:25AM 36.9389 -100.8981 78° East 492 566 35,000  Level Kansas City Center
02:26AM 36.9681 -100.7103 79° East 495 570 35,000  Level Kansas City Center
02:27AM 36.9936 -100.5500 79° East 494 568 35,000  Level Kansas City Center
02:28AM 37.0178 -100.3906 79° East 491 565 35,000  Level Kansas City Center
02:29AM 37.0422 -100.2331 79° East 487 560 35,000  Level Kansas City Center
02:30AM 37.0692 -100.0492 80° East 485 558 35,000  Level Kansas City Center
02:36AM 37.2200 -99.0160 80° East 483 556 35,000  Level FlightAware
02:36AM 37.2330 -98.9240 80° East 482 555 35,000  Level FlightAware
02:37AM 37.2570 -98.7480 80° East 482 555 35,000  Level FlightAware
02:38AM 37.2720 -98.6410 80° East 483 556 35,000  Level FlightAware
02:39AM 37.2910 -98.5050 80° East 484 557 35,000  Level FlightAware
02:40AM 37.3100 -98.3650 80° East 482 555 35,000  Level FlightAware
02:40AM 37.3260 -98.2500 80° East 481 554 35,000  Level FlightAware
02:41AM 37.3430 -98.1220 80° East 479 551 35,000 480 Level FlightAware
02:43AM 37.3830 -97.8130 81° East 475 547 36,300 720 Climbing FlightAware
02:44AM 37.4000 -97.6810 81° East 475 547 37,000 420 Climbing FlightAware
02:45AM 37.4150 -97.5650 81° East 476 548 37,000  Level FlightAware
02:45AM 37.4300 -97.4450 81° East 474 545 37,000  Level FlightAware
02:46AM 37.4440 -97.3380 81° East 472 543 37,000  Level FlightAware
02:47AM 37.4590 -97.2130 81° East 467 537 37,000  Level FlightAware
02:47AM 37.4720 -97.1090 81° East 465 535 37,000  Level FlightAware
02:48AM 37.4870 -96.9870 81° East 464 534 37,000  Level FlightAware
02:49AM 37.5010 -96.8790 81° East 464 534 37,000  Level FlightAware
02:49AM 37.5110 -96.7910 82° East 463 533 37,000  Level FlightAware
02:50AM 37.5270 -96.6620 81° East 462 532 37,000  Level FlightAware
02:51AM 37.5390 -96.5600 82° East 462 532 37,000  Level FlightAware
02:52AM 37.5520 -96.4480 82° East 464 534 37,000  Level FlightAware
02:52AM 37.5660 -96.3390 81° East 465 535 37,000  Level FlightAware
02:53AM 37.5390 -96.5600 261° West 465 535 37,000  Level FlightAware
02:54AM 37.5500 -96.4740 81° East 465 535 37,000  Level FlightAware
02:55AM 37.6090 -95.9610 82° East 468 539 37,000  Level FlightAware
02:55AM 37.6230 -95.8450 81° East 468 539 37,000  Level FlightAware
02:57AM 37.6340 -95.7530 81° East 468 539 37,000  Level FlightAware
02:57AM 37.6260 -95.8220 262° West 470 541 37,000  Level FlightAware
02:58AM 37.6370 -95.7290 81° East 470 541 37,000  Level FlightAware
02:59AM 37.6490 -95.6370 81° East 470 541 37,000  Level FlightAware
03:00AM 37.6640 -95.4670 84° East 474 545 37,000  Level FlightAware
03:00AM 37.6740 -95.3710 82° East 474 545 37,000  Level FlightAware
03:01AM 37.7270 -94.8730 82° East 473 544 37,000  Level FlightAware
03:02AM 37.7390 -94.7620 82° East 474 545 37,000  Level FlightAware
03:03AM 37.7490 -94.6670 82° East 475 547 37,000  Level FlightAware
03:03AM 37.7620 -94.5350 83° East 477 549 37,000  Level FlightAware
03:04AM 37.7730 -94.4300 82° East 477 549 37,000  Level FlightAware
03:05AM 37.6510 -95.5860 263° West 37,000  Level FlightAware
03:05AM 37.7970 -94.1820 82° East 478 550 37,000  Level FlightAware
03:06AM 37.8090 -94.0600 83° East 480 552 37,000  Level FlightAware
03:07AM 37.8210 -93.9380 83° East 481 554 37,000  Level FlightAware
03:07AM 37.8290 -93.8520 83° East 481 554 37,000  Level FlightAware
03:08AM 37.8460 -93.6710 83° East 483 556 37,000  Level FlightAware
03:09AM 37.8550 -93.5790 83° East 483 556 37,000  Level FlightAware
03:10AM 37.8680 -93.4350 83° East 480 552 37,000  Level FlightAware
03:10AM 37.8760 -93.3440 84° East 480 552 37,000  Level FlightAware
03:11AM 37.8850 -93.2460 83° East 480 552 37,000  Level FlightAware
03:12AM 37.8980 -93.1050 83° East 479 551 37,000  Level FlightAware
03:13AM 37.9130 -92.9350 84° East 479 551 37,000  Level FlightAware
03:14AM 37.9230 -92.8260 83° East 479 551 37,000  Level FlightAware
03:14AM 37.9320 -92.7310 83° East 479 551 37,000  Level FlightAware
03:15AM 37.9420 -92.6360 82° East 479 551 37,000  Level FlightAware
03:16AM 37.9510 -92.5420 83° East 479 551 37,000  Level FlightAware
03:16AM 37.9600 -92.4470 83° East 479 551 37,000  Level FlightAware
03:17AM 37.9710 -92.3280 83° East 479 551 37,000  Level FlightAware
03:18AM 37.9810 -92.2330 82° East 479 551 37,000  Level FlightAware
03:18AM 37.9900 -92.1380 83° East 479 551 37,000  Level FlightAware
03:19AM 37.9990 -92.0440 83° East 479 551 37,000  Level FlightAware
03:20AM 38.0080 -91.9490 83° East 479 551 37,000  Level FlightAware
03:21AM 38.0200 -91.8300 83° East 479 551 37,000  Level FlightAware
03:21AM 38.0290 -91.7350 83° East 479 551 37,000  Level FlightAware
03:22AM 38.0380 -91.6400 83° East 479 551 37,000  Level FlightAware
03:23AM 38.0470 -91.5450 83° East 479 551 37,000  Level FlightAware
03:26AM 38.0810 -90.7760 87° East 488 562 37,000  Level FlightAware
03:27AM 38.0920 -90.6080 85° East 490 564 37,000  Level FlightAware
03:27AM 38.1000 -90.4930 85° East 491 565 37,000  Level FlightAware
03:28AM 38.1070 -90.3840 85° East 491 565 37,000  Level FlightAware
03:29AM 38.1160 -90.2510 85° East 495 570 37,000  Level FlightAware
03:29AM 38.1230 -90.1280 86° East 496 571 37,000  Level FlightAware
03:30AM 38.1310 -90.0050 85° East 498 573 37,000  Level FlightAware
03:31AM 38.1390 -89.8770 85° East 500 575 37,000  Level FlightAware
03:31AM 38.1450 -89.7840 85° East 501 577 37,000  Level FlightAware
03:32AM 38.1530 -89.6470 86° East 504 580 37,000  Level FlightAware
03:33AM 38.1610 -89.5090 86° East 505 581 37,000  Level FlightAware
03:34AM 38.1730 -89.3000 86° East 506 582 37,000  Level FlightAware
03:35AM 38.1790 -89.1820 86° East 506 582 37,000  Level FlightAware
03:36AM 38.1860 -89.0550 86° East 507 583 37,000  Level FlightAware
03:36AM 38.1920 -88.9480 86° East 508 585 37,000  Level FlightAware
03:37AM 38.1990 -88.8070 86° East 507 583 37,000  Level FlightAware
03:38AM 38.2050 -88.6840 86° East 506 582 37,000  Level FlightAware
03:38AM 38.2110 -88.5590 86° East 506 582 37,000  Level FlightAware
03:39AM 38.2180 -88.4220 86° East 506 582 37,000  Level FlightAware
03:40AM 38.2240 -88.2860 87° East 507 583 37,000  Level FlightAware
03:40AM 38.2300 -88.1680 86° East 507 583 37,000  Level FlightAware
03:41AM 38.2360 -88.0500 86° East 508 585 37,000  Level FlightAware
03:42AM 38.2410 -87.9160 87° East 510 587 37,000  Level FlightAware
03:43AM 38.2470 -87.7960 86° East 513 590 37,000  Level FlightAware
03:43AM 38.2520 -87.6590 87° East 516 594 37,000  Level FlightAware
03:44AM 38.2570 -87.5430 87° East 517 595 37,000  Level FlightAware
03:45AM 38.2620 -87.4200 87° East 517 595 37,000  Level FlightAware
03:45AM 38.2670 -87.2950 87° East 517 595 37,000  Level FlightAware
03:46AM 38.2720 -87.1600 87° East 517 595 37,000  Level FlightAware
03:47AM 38.2770 -87.0400 87° East 518 596 37,000  Level FlightAware
03:47AM 38.2820 -86.9000 87° East 519 597 37,000  Level FlightAware
03:48AM 38.2860 -86.7840 87° East 519 597 37,000  Level FlightAware
03:49AM 38.2900 -86.6410 88° East 518 596 37,000  Level FlightAware
03:50AM 38.2940 -86.5230 87° East 517 595 37,000  Level FlightAware
03:50AM 38.2980 -86.4010 88° East 518 596 37,000  Level FlightAware
03:51AM 38.3020 -86.2620 88° East 519 597 37,000  Level FlightAware
03:52AM 38.3060 -86.1470 87° East 521 600 37,000  Level FlightAware
03:52AM 38.3090 -86.0110 88° East 522 601 37,000  Level FlightAware
03:53AM 38.3130 -85.8950 87° East 522 601 37,000  Level FlightAware
03:54AM 38.3170 -85.7400 88° East 522 601 37,000  Level FlightAware
03:54AM 38.3190 -85.6170 89° East 522 601 37,000  Level FlightAware
03:55AM 38.3230 -85.4850 88° East 522 601 37,000  Level FlightAware
03:56AM 38.3250 -85.3610 89° East 523 602 37,000  Level FlightAware
03:57AM 38.3280 -85.2370 88° East 524 603 37,000  Level FlightAware
03:57AM 38.3310 -85.0970 88° East 524 603 37,000  Level FlightAware
03:58AM 38.3340 -84.9720 88° East 525 604 37,000  Level FlightAware
03:59AM 38.3360 -84.8510 89° East 524 603 37,000  Level FlightAware
03:59AM 38.3380 -84.7180 89° East 525 604 37,000  Level FlightAware
04:00AM 38.3410 -84.5410 89° East 525 604 37,000  Level FlightAware
04:01AM 38.3430 -84.4060 89° East 525 604 37,000  Level FlightAware
04:02AM 38.3450 -84.3090 88° East 525 604 37,000  Level FlightAware
04:02AM 38.3460 -84.1590 89° East 528 608 37,000  Level FlightAware
04:03AM 38.3480 -84.0160 89° East 529 609 37,000  Level FlightAware
04:04AM 38.3490 -83.8900 89° East 530 610 37,000  Level FlightAware
04:05AM 38.3500 -83.7600 89° East 530 610 37,000  Level FlightAware
04:05AM 38.3501 -83.7392 90° East 530 610 37,000  Level FlightAware ADS-B
04:05AM 38.3510 -83.6610 89° East 530 610 37,000  Level FlightAware
04:06AM 38.3520 -83.5070 89° East 530 610 37,000  Level FlightAware
04:06AM 38.3520 -83.3970 90° East 532 612 37,000  Level FlightAware
04:07AM 38.3540 -83.2740 89° East 532 612 37,000  Level FlightAware
04:08AM 38.3690 -83.1200 83° East 534 615 37,000  Level FlightAware
04:09AM 38.3890 -82.9730 80° East 535 616 37,000  Level FlightAware
04:09AM 38.4060 -82.8480 80° East 535 616 37,000  Level FlightAware
04:10AM 38.4220 -82.7260 80° East 536 617 37,000  Level FlightAware
04:11AM 38.4400 -82.5880 81° East 535 616 37,000  Level FlightAware
04:11AM 38.4560 -82.4620 81° East 536 617 37,000  Level FlightAware
04:12AM 38.4748 -82.3170 81° East 537 618 37,000  Level FlightAware ADS-B
04:13AM 38.4900 -82.1990 81° East 537 618 37,000  Level FlightAware
04:14AM 38.5060 -82.0700 81° East 536 617 37,000  Level FlightAware
04:14AM 38.5230 -81.9330 81° East 537 618 37,000  Level FlightAware
04:15AM 38.5390 -81.8070 81° East 537 618 37,000  Level FlightAware
04:16AM 38.5540 -81.6810 81° East 538 619 37,000  Level FlightAware
04:16AM 38.5720 -81.5380 81° East 538 619 37,000  Level FlightAware
04:17AM 38.5870 -81.4140 81° East 539 620 37,000  Level FlightAware
04:18AM 38.6020 -81.2880 81° East 539 620 37,000  Level FlightAware
04:18AM 38.6180 -81.1470 82° East 540 621 37,000  Level FlightAware
04:19AM 38.6330 -81.0240 81° East 540 621 37,000  Level FlightAware
04:20AM 38.6500 -80.8780 81° East 541 623 37,000  Level FlightAware
04:21AM 38.6650 -80.7500 81° East 542 624 37,000  Level FlightAware
04:21AM 38.6780 -80.6240 82° East 543 625 37,000  Level FlightAware
04:22AM 38.6910 -80.4840 83° East 543 625 37,000  Level FlightAware
04:23AM 38.7030 -80.3580 83° East 543 625 37,000 -780 Level FlightAware
04:23AM 38.7170 -80.2090 83° East 540 621 35,900 -1,860 Descending FlightAware
04:24AM 38.7290 -80.0870 83° East 539 620 34,400 -2,340 Descending FlightAware
04:25AM 38.7430 -79.9450 83° East 535 616 32,600 -2,520 Descending FlightAware
04:25AM 38.7540 -79.8190 84° East 534 615 30,900 -2,520 Descending FlightAware
04:26AM 38.7650 -79.6970 83° East 526 605 29,300 -2,580 Descending FlightAware
04:27AM 38.7790 -79.5540 83° East 516 594 27,300 -2,580 Descending FlightAware
04:27AM 38.7856 -79.4906 83° East 529 609 26,300 -2,520 Descending Washington Center
04:28AM 38.7975 -79.3075 85° East 522 601 23,800 -2,580 Descending Washington Center
04:29AM 38.8133 -79.1325 83° East 507 583 21,200 -2,700 Descending Washington Center
04:30AM 38.8286 -78.9653 83° East 489 563 18,500 -2,640 Descending Washington Center
04:31AM 38.8436 -78.8008 83° East 471 542 16,000 -2,580 Descending Washington Center
04:32AM 38.8539 -78.6411 85° East 460 529 13,400 -2,340 Descending Washington Center
04:33AM 38.8681 -78.4872 83° East 448 516 11,400 -1,500 Descending Washington Center
04:34AM 38.8422 -78.3475 103° East 409 471 10,400 -900 Descending Washington Center
04:35AM 38.8219 -78.2242 102° East 385 443 9,700 -1,200 Descending Washington Center
04:41AM 38.7970 -77.6200 102° East 271 312 2,400 -960 Descending FlightAware
04:45AM 38.9120 -77.4600 47° Northeast 128 147 1,000 -360 Descending FlightAware